createdAt,value
2023-05-08T00:01:42.200Z,4.82
2023-05-08T00:06:43.984Z,4.13
2023-05-08T00:11:45.792Z,4.00
2023-05-08T00:16:47.614Z,4.43
2023-05-08T00:21:49.427Z,4.53
2023-05-08T00:26:51.202Z,4.25
2023-05-08T00:31:53.050Z,4.47
2023-05-08T00:36:56.621Z,4.88
2023-05-08T00:41:58.409Z,4.90
2023-05-08T00:47:00.679Z,5.53
2023-05-08T00:52:08.464Z,5.78
2023-05-08T00:57:10.617Z,6.35
2023-05-08T01:02:13.105Z,6.32
2023-05-08T01:07:15.119Z,6.82
2023-05-08T01:12:47.744Z,6.88
2023-05-08T01:18:09.679Z,6.85
2023-05-08T01:23:30.494Z,7.30
2023-05-08T01:28:41.502Z,7.13
2023-05-08T01:34:08.886Z,5.53
2023-05-08T01:39:30.750Z,6.22
2023-05-08T01:44:37.563Z,6.55
2023-05-08T01:49:48.929Z,7.03
2023-05-08T01:54:57.861Z,8.90
2023-05-08T02:00:02.520Z,6.90
2023-05-08T02:05:14.141Z,5.95
2023-05-08T02:10:17.383Z,6.30
2023-05-08T02:15:22.570Z,6.90
2023-05-08T02:20:25.682Z,6.63
2023-05-08T02:25:29.276Z,6.35
2023-05-08T02:30:31.359Z,6.35
2023-05-08T02:35:33.594Z,6.18
2023-05-08T02:40:38.610Z,6.47
2023-05-08T02:45:47.256Z,7.35
2023-05-08T02:51:02.997Z,7.10
2023-05-08T02:56:10.032Z,7.20
2023-05-08T03:01:21.550Z,7.57
2023-05-08T03:06:26.320Z,7.05
2023-05-08T03:11:39.249Z,6.43
2023-05-08T03:16:45.016Z,7.25
2023-05-08T03:21:49.102Z,6.88
2023-05-08T03:26:51.134Z,7.43
2023-05-08T03:31:54.111Z,7.80
2023-05-08T03:36:56.308Z,7.63
2023-05-08T03:41:58.250Z,7.15
2023-05-08T03:47:02.184Z,6.43
2023-05-08T03:52:04.992Z,7.53
2023-05-08T03:57:07.083Z,7.05
2023-05-08T04:02:19.669Z,7.47
2023-05-08T04:07:27.718Z,8.65
2023-05-08T04:12:40.710Z,6.88
2023-05-08T04:17:50.920Z,7.18
2023-05-08T04:22:55.837Z,6.93
2023-05-08T04:27:59.485Z,7.40
2023-05-08T04:33:05.065Z,7.00
2023-05-08T04:38:07.205Z,6.88
2023-05-08T04:43:09.718Z,8.18
2023-05-08T04:48:12.775Z,6.97
2023-05-08T04:53:14.713Z,7.63
2023-05-08T04:58:16.666Z,9.30
2023-05-08T05:03:18.767Z,8.18
2023-05-08T05:08:20.756Z,7.78
2023-05-08T05:13:22.735Z,9.43
2023-05-08T05:18:25.155Z,8.88
2023-05-08T05:23:29.976Z,9.52
2023-05-08T05:28:32.303Z,11.65
2023-05-08T05:33:34.566Z,11.80
2023-05-08T05:38:36.655Z,12.02
2023-05-08T05:43:40.061Z,11.93
2023-05-08T05:48:42.000Z,12.45
2023-05-08T05:53:44.935Z,13.55
2023-05-08T05:58:46.889Z,13.15
2023-05-08T06:03:48.917Z,12.55
2023-05-08T06:08:51.000Z,12.20
2023-05-08T06:13:52.832Z,12.35
2023-05-08T06:18:54.681Z,11.57
2023-05-08T06:23:56.503Z,13.55
2023-05-08T06:28:58.274Z,13.75
2023-05-08T06:34:00.037Z,12.73
2023-05-08T06:39:02.083Z,12.65
2023-05-08T06:44:03.952Z,11.43
2023-05-08T06:49:05.726Z,13.63
2023-05-08T06:54:08.270Z,12.77
2023-05-08T06:59:10.042Z,13.82
2023-05-08T07:04:11.817Z,13.93
2023-05-08T07:09:13.665Z,14.35
2023-05-08T07:14:15.422Z,13.88
2023-05-08T07:19:17.282Z,14.70
2023-05-08T07:24:19.013Z,14.55
2023-05-08T07:29:20.898Z,13.77
2023-05-08T07:34:22.897Z,15.43
2023-05-08T07:39:24.734Z,14.27
2023-05-08T07:44:26.497Z,15.27
2023-05-08T07:49:28.262Z,15.40
2023-05-08T07:54:30.039Z,17.00
2023-05-08T07:59:31.793Z,14.90
2023-05-08T08:04:33.660Z,17.45
2023-05-08T08:09:35.439Z,14.95
2023-05-08T08:14:37.634Z,15.23
2023-05-08T08:19:39.448Z,15.75
2023-05-08T08:24:41.229Z,17.08
2023-05-08T08:29:43.102Z,16.00
2023-05-08T08:34:44.891Z,17.10
2023-05-08T08:39:48.311Z,16.73
2023-05-08T08:44:50.086Z,13.90
2023-05-08T08:49:53.408Z,16.35
2023-05-08T08:54:57.499Z,13.45
2023-05-08T09:00:03.946Z,14.00
2023-05-08T09:05:06.607Z,14.48
2023-05-08T09:10:15.165Z,14.23
2023-05-08T09:15:17.106Z,12.93
2023-05-08T09:20:19.372Z,12.00
2023-05-08T09:25:21.393Z,12.93
2023-05-08T09:30:23.114Z,12.95
2023-05-08T09:35:36.637Z,11.48
2023-05-08T09:40:38.425Z,14.40
2023-05-08T09:45:41.448Z,14.40
2023-05-08T09:50:43.697Z,13.23
2023-05-08T09:55:48.786Z,13.95
2023-05-08T10:00:51.312Z,14.40
2023-05-08T10:05:53.129Z,13.05
2023-05-08T10:11:12.733Z,12.50
2023-05-08T10:16:16.726Z,13.48
2023-05-08T10:21:20.365Z,11.88
2023-05-08T10:26:30.492Z,11.15
2023-05-08T10:31:36.524Z,13.88
2023-05-08T10:36:38.794Z,12.15
2023-05-08T10:41:41.643Z,11.95
2023-05-08T10:46:54.667Z,12.20
2023-05-08T10:52:21.953Z,11.77
2023-05-08T10:57:23.713Z,12.35
2023-05-08T11:02:31.475Z,12.02
2023-05-08T11:07:59.193Z,13.25
2023-05-08T11:13:01.786Z,11.40
2023-05-08T11:18:11.517Z,11.90
2023-05-08T11:23:33.650Z,11.80
2023-05-08T11:28:56.892Z,10.95
2023-05-08T11:33:58.671Z,11.50
2023-05-08T11:39:07.896Z,12.55
2023-05-08T11:44:20.605Z,11.25
2023-05-08T11:49:29.038Z,11.40
2023-05-08T11:54:31.937Z,11.63
2023-05-08T11:59:37.599Z,12.90
2023-05-08T12:04:47.274Z,13.13
2023-05-08T12:09:49.295Z,11.50
2023-05-08T12:14:51.758Z,12.18
2023-05-08T12:19:56.657Z,12.68
2023-05-08T12:24:58.441Z,12.60
2023-05-08T12:30:00.229Z,11.82
2023-05-08T12:35:02.321Z,13.20
2023-05-08T12:40:05.372Z,14.10
2023-05-08T12:45:08.214Z,15.35
2023-05-08T12:50:10.425Z,10.38
2023-05-08T12:55:26.496Z,10.90
2023-05-08T13:00:42.036Z,16.08
2023-05-08T13:05:45.563Z,16.20
2023-05-08T13:10:55.635Z,10.95
2023-05-08T13:15:57.797Z,12.10
2023-05-08T13:21:01.310Z,11.38
2023-05-08T13:26:04.054Z,13.57
2023-05-08T13:31:05.849Z,14.10
2023-05-08T13:36:08.155Z,16.05
2023-05-08T13:41:09.879Z,15.63
2023-05-08T13:46:11.735Z,6.10
2023-05-08T13:51:13.606Z,6.00
2023-05-08T13:56:15.675Z,6.03
2023-05-08T14:01:25.916Z,9.07
2023-05-08T14:06:29.208Z,6.65
2023-05-08T14:11:31.043Z,6.78
2023-05-08T14:16:33.165Z,6.65
2023-05-08T14:21:36.734Z,6.40
2023-05-08T14:26:38.963Z,8.77
2023-05-08T14:31:41.506Z,6.30
2023-05-08T14:36:43.363Z,5.90
2023-05-08T14:41:59.350Z,7.00
2023-05-08T14:47:06.879Z,7.07
2023-05-08T14:52:08.730Z,6.82
2023-05-08T14:57:10.590Z,6.20
2023-05-08T15:02:12.448Z,6.55
2023-05-08T15:07:14.285Z,6.35
2023-05-08T15:12:16.067Z,6.45
2023-05-08T15:17:17.808Z,6.80
2023-05-08T15:22:19.589Z,6.40
2023-05-08T15:27:21.519Z,5.38
2023-05-08T15:32:23.835Z,5.72
2023-05-08T15:37:25.650Z,5.60
2023-05-08T15:42:27.416Z,5.07
2023-05-08T15:47:29.229Z,7.55
2023-05-08T15:52:30.997Z,5.78
2023-05-08T15:57:32.711Z,5.97
2023-05-08T16:02:34.561Z,5.35
2023-05-08T16:07:36.460Z,13.32
2023-05-08T16:12:38.267Z,5.97
2023-05-08T16:17:40.082Z,6.63
2023-05-08T16:22:41.874Z,6.88
2023-05-08T16:27:43.870Z,6.00
2023-05-08T16:32:46.094Z,6.60
2023-05-08T16:37:48.493Z,5.95
2023-05-08T16:42:50.794Z,5.68
2023-05-08T16:47:52.865Z,5.70
2023-05-08T16:52:55.502Z,5.18
2023-05-08T16:57:57.247Z,5.55
2023-05-08T17:02:59.360Z,7.55
2023-05-08T17:08:01.393Z,5.32
2023-05-08T17:13:03.237Z,5.93
2023-05-08T17:18:05.170Z,6.10
2023-05-08T17:23:07.323Z,6.38
2023-05-08T17:28:09.066Z,5.65
2023-05-08T17:33:10.881Z,5.25
2023-05-08T17:38:12.663Z,5.22
2023-05-08T17:43:14.399Z,5.40
2023-05-08T17:48:16.129Z,5.32
2023-05-08T17:53:17.929Z,6.40
2023-05-08T17:58:19.682Z,5.57
2023-05-08T18:03:21.584Z,5.45
2023-05-08T18:08:23.385Z,5.90
2023-05-08T18:13:25.272Z,6.28
2023-05-08T18:18:27.361Z,5.70
2023-05-08T18:23:29.174Z,5.88
2023-05-08T18:28:31.104Z,5.90
2023-05-08T18:33:32.863Z,6.10
2023-05-08T18:38:35.109Z,6.38
2023-05-08T18:43:36.882Z,5.97
2023-05-08T18:48:39.307Z,6.13
2023-05-08T18:53:41.562Z,9.15
2023-05-08T18:58:43.291Z,7.63
2023-05-08T19:03:45.388Z,8.02
2023-05-08T19:08:48.374Z,8.35
2023-05-08T19:13:51.769Z,7.30
2023-05-08T19:18:53.535Z,6.22
2023-05-08T19:23:55.406Z,5.90
2023-05-08T19:28:57.168Z,6.18
2023-05-08T19:33:59.036Z,7.22
2023-05-08T19:39:02.281Z,6.18
2023-05-08T19:44:04.029Z,5.85
2023-05-08T19:49:05.996Z,6.75
2023-05-08T19:54:07.895Z,5.45
2023-05-08T19:59:09.692Z,5.45
2023-05-08T20:04:11.537Z,5.75
2023-05-08T20:09:13.453Z,5.60
2023-05-08T20:14:15.323Z,6.90
2023-05-08T20:19:17.142Z,5.60
2023-05-08T20:24:18.976Z,5.53
2023-05-08T20:29:23.128Z,5.20
2023-05-08T20:34:24.885Z,4.68
2023-05-08T20:39:27.580Z,5.57
2023-05-08T20:44:29.371Z,4.90
2023-05-08T20:49:31.483Z,5.60
2023-05-08T20:54:33.341Z,5.28
2023-05-08T20:59:35.139Z,8.45
2023-05-08T21:04:38.079Z,6.10
2023-05-08T21:09:39.903Z,5.20
2023-05-08T21:14:43.954Z,5.35
2023-05-08T21:19:45.881Z,4.43
2023-05-08T21:24:47.848Z,4.40
2023-05-08T21:29:49.617Z,4.72
2023-05-08T21:34:51.386Z,4.55
2023-05-08T21:39:54.245Z,4.80
2023-05-08T21:44:56.490Z,5.28
2023-05-08T21:49:58.327Z,4.80
2023-05-08T21:55:00.113Z,4.85
2023-05-08T22:00:02.272Z,4.60
2023-05-08T22:05:04.749Z,4.85
2023-05-08T22:10:10.372Z,4.70
2023-05-08T22:15:25.700Z,4.78
2023-05-08T22:20:31.234Z,4.03
2023-05-08T22:25:32.962Z,4.65
2023-05-08T22:30:34.780Z,4.75
2023-05-08T22:35:36.539Z,4.70
2023-05-08T22:40:38.442Z,4.82
2023-05-08T22:45:40.719Z,4.93
2023-05-08T22:50:42.477Z,4.70
2023-05-08T22:55:44.443Z,4.75
2023-05-08T23:00:46.250Z,4.57
2023-05-08T23:05:48.836Z,4.47
2023-05-08T23:10:50.544Z,4.72
2023-05-08T23:15:52.357Z,4.80
2023-05-08T23:20:54.348Z,4.93
2023-05-08T23:25:56.291Z,4.70
2023-05-08T23:30:58.211Z,4.95
2023-05-08T23:36:00.287Z,5.43
2023-05-08T23:41:02.051Z,4.45
2023-05-08T23:46:03.842Z,4.97
2023-05-08T23:51:05.980Z,5.07
2023-05-08T23:56:07.834Z,4.80
